createdAt,value
2019-02-15T00:01:10.248Z,8
2019-02-15T00:11:15.118Z,7
2019-02-15T00:16:17.739Z,6
2019-02-15T00:21:20.049Z,7
2019-02-15T00:26:22.520Z,7
2019-02-15T00:31:24.952Z,7
2019-02-15T00:36:27.415Z,6
2019-02-15T00:41:29.887Z,5
2019-02-15T00:46:32.353Z,6
2019-02-15T00:51:34.787Z,5
2019-02-15T00:56:37.249Z,6
2019-02-15T01:01:39.749Z,5
2019-02-15T01:06:42.168Z,5
2019-02-15T01:11:44.660Z,6
2019-02-15T01:16:47.176Z,6
2019-02-15T01:21:49.537Z,6
2019-02-15T01:26:52.031Z,6
2019-02-15T01:31:54.474Z,6
2019-02-15T01:36:56.978Z,6
2019-02-15T01:41:59.377Z,5
2019-02-15T01:47:07.204Z,4
2019-02-15T01:52:04.313Z,6
2019-02-15T01:57:06.766Z,6
2019-02-15T02:02:09.205Z,6
2019-02-15T02:07:11.664Z,6
2019-02-15T02:12:14.134Z,7
2019-02-15T02:17:16.681Z,6
2019-02-15T02:22:19.025Z,6
2019-02-15T02:27:21.482Z,5
2019-02-15T02:32:23.949Z,5
2019-02-15T02:37:26.400Z,5
2019-02-15T02:42:28.865Z,5
2019-02-15T02:47:31.426Z,4
2019-02-15T02:52:33.765Z,4
2019-02-15T02:57:36.240Z,4
2019-02-15T03:02:38.734Z,4
2019-02-15T03:07:41.219Z,4
2019-02-15T03:12:43.603Z,5
2019-02-15T03:17:46.130Z,4
2019-02-15T03:22:48.526Z,3
2019-02-15T03:27:50.979Z,2
2019-02-15T03:32:53.442Z,3
2019-02-15T03:37:55.920Z,3
2019-02-15T03:42:58.509Z,3
2019-02-15T03:48:00.831Z,3
2019-02-15T03:53:03.264Z,2
2019-02-15T03:58:05.759Z,2
2019-02-15T04:03:08.198Z,3
2019-02-15T04:08:10.629Z,3
2019-02-15T04:13:13.114Z,3
2019-02-15T04:18:15.568Z,2
2019-02-15T04:23:18.147Z,1
2019-02-15T04:28:20.489Z,3
2019-02-15T04:33:22.917Z,3
2019-02-15T04:38:25.365Z,4
2019-02-15T04:43:27.863Z,3
2019-02-15T04:48:30.346Z,3
2019-02-15T04:53:32.750Z,3
2019-02-15T04:58:35.202Z,3
2019-02-15T05:03:37.705Z,3
2019-02-15T05:08:45.145Z,2
2019-02-15T05:13:42.582Z,3
2019-02-15T05:18:45.056Z,5
2019-02-15T05:23:47.649Z,4
2019-02-15T05:28:49.957Z,4
2019-02-15T05:33:52.455Z,3
2019-02-15T05:38:54.875Z,3
2019-02-15T05:43:57.326Z,4
2019-02-15T05:49:00.059Z,4
2019-02-15T05:54:02.295Z,4
2019-02-15T05:59:04.693Z,3
2019-02-15T06:04:07.161Z,4
2019-02-15T06:09:09.592Z,5
2019-02-15T06:14:12.073Z,3
2019-02-15T06:19:14.563Z,3
2019-02-15T06:24:16.973Z,3
2019-02-15T06:29:19.444Z,4
2019-02-15T06:34:21.879Z,3
2019-02-15T06:39:24.343Z,6
2019-02-15T06:44:26.809Z,5
2019-02-15T06:49:29.306Z,7
2019-02-15T06:54:31.731Z,10
2019-02-15T06:59:34.196Z,10
2019-02-15T07:04:36.630Z,7
2019-02-15T07:09:39.149Z,6
2019-02-15T07:14:41.662Z,4
2019-02-15T07:19:44.015Z,6
2019-02-15T07:24:47.241Z,6
2019-02-15T07:29:48.970Z,6
2019-02-15T07:34:51.438Z,6
2019-02-15T07:39:53.872Z,4
2019-02-15T07:44:56.303Z,3
2019-02-15T07:49:58.776Z,3
2019-02-15T07:55:01.294Z,3
2019-02-15T08:00:03.721Z,3
2019-02-15T08:05:06.167Z,5
2019-02-15T08:10:08.607Z,4
2019-02-15T08:15:11.120Z,4
2019-02-15T08:20:13.585Z,4
2019-02-15T08:25:16.014Z,3
2019-02-15T08:30:18.574Z,3
2019-02-15T08:35:21.038Z,3
2019-02-15T08:40:23.367Z,2
2019-02-15T08:45:25.837Z,5
2019-02-15T08:50:28.304Z,5
2019-02-15T08:55:30.747Z,6
2019-02-15T09:00:33.256Z,22
2019-02-15T09:05:35.667Z,28
2019-02-15T09:10:38.181Z,7
2019-02-15T09:15:40.770Z,4
2019-02-15T09:20:43.134Z,4
2019-02-15T09:30:48.061Z,5
2019-02-15T09:35:50.435Z,4
2019-02-15T09:40:52.900Z,5
2019-02-15T09:45:55.391Z,4
2019-02-15T09:50:57.829Z,4
2019-02-15T09:56:00.305Z,6
2019-02-15T10:01:02.754Z,5
2019-02-15T10:06:05.196Z,6
2019-02-15T10:11:07.665Z,7
2019-02-15T10:16:10.126Z,7
2019-02-15T10:21:12.576Z,8
2019-02-15T10:26:15.144Z,7
2019-02-15T10:31:17.588Z,7
2019-02-15T10:41:22.431Z,6
2019-02-15T10:46:24.894Z,6
2019-02-15T10:51:27.372Z,6
2019-02-15T10:56:29.827Z,7
2019-02-15T11:01:32.437Z,6
2019-02-15T11:06:34.756Z,5
2019-02-15T11:11:37.170Z,5
2019-02-15T11:16:46.928Z,3
2019-02-15T11:21:42.159Z,3
2019-02-15T11:26:44.584Z,3
2019-02-15T11:31:47.021Z,3
2019-02-15T11:36:49.473Z,3
2019-02-15T11:41:51.967Z,2
2019-02-15T11:46:56.653Z,2
2019-02-15T11:51:56.974Z,1
2019-02-15T11:56:59.327Z,1
2019-02-15T12:02:05.986Z,2
2019-02-15T12:07:04.282Z,2
2019-02-15T12:12:10.563Z,2
2019-02-15T12:17:09.182Z,2
2019-02-15T12:22:11.623Z,2
2019-02-15T12:27:14.143Z,2
2019-02-15T12:32:16.805Z,2
2019-02-15T12:37:19.085Z,2
2019-02-15T12:42:21.503Z,2
2019-02-15T12:47:23.921Z,2
2019-02-15T12:52:26.384Z,2
2019-02-15T12:57:28.846Z,2
2019-02-15T13:02:31.418Z,2
2019-02-15T13:07:33.820Z,2
2019-02-15T13:12:36.333Z,1
2019-02-15T13:17:38.852Z,2
2019-02-15T13:22:41.180Z,2
2019-02-15T13:27:43.696Z,2
2019-02-15T13:32:46.114Z,2
2019-02-15T13:37:48.582Z,2
2019-02-15T13:42:50.975Z,2
2019-02-15T13:47:53.524Z,2
2019-02-15T13:52:55.942Z,3
2019-02-15T13:57:58.357Z,6
2019-02-15T14:03:00.818Z,3
2019-02-15T14:08:03.273Z,2
2019-02-15T14:13:05.734Z,2
2019-02-15T14:18:08.253Z,3
2019-02-15T14:23:10.657Z,3
2019-02-15T14:28:13.109Z,3
2019-02-15T14:33:15.575Z,3
2019-02-15T14:38:18.036Z,2
2019-02-15T14:43:20.532Z,3
2019-02-15T14:48:22.939Z,2
2019-02-15T14:53:25.505Z,2
2019-02-15T14:58:27.859Z,2
2019-02-15T15:03:30.356Z,2
2019-02-15T15:08:33.127Z,2
2019-02-15T15:13:35.294Z,2
2019-02-15T15:18:37.757Z,2
2019-02-15T15:23:40.170Z,3
2019-02-15T15:28:42.613Z,2
2019-02-15T15:33:45.080Z,2
2019-02-15T15:38:47.652Z,3
2019-02-15T15:43:49.988Z,6
2019-02-15T15:48:52.446Z,11
2019-02-15T15:53:55.097Z,9
2019-02-15T15:58:57.338Z,25
2019-02-15T16:03:59.818Z,2
2019-02-15T16:09:02.321Z,2
2019-02-15T16:14:04.741Z,6
2019-02-15T16:19:07.289Z,7
2019-02-15T16:24:12.476Z,14
2019-02-15T16:29:13.906Z,16
2019-02-15T16:34:14.550Z,6
2019-02-15T16:39:17.004Z,12
2019-02-15T16:44:19.502Z,14
2019-02-15T16:49:21.987Z,10
2019-02-15T16:54:24.386Z,11
2019-02-15T16:59:26.844Z,6
2019-02-15T17:04:29.292Z,10
2019-02-15T17:09:31.759Z,13
2019-02-15T17:14:34.298Z,11
2019-02-15T17:19:36.674Z,14
2019-02-15T17:24:39.134Z,12
2019-02-15T17:29:41.583Z,9
2019-02-15T17:34:44.046Z,11
2019-02-15T17:39:46.562Z,18
2019-02-15T17:44:49.049Z,16
2019-02-15T17:49:51.446Z,13
2019-02-15T17:54:54.034Z,53
2019-02-15T17:59:56.341Z,44
2019-02-15T18:04:58.811Z,36
2019-02-15T18:10:01.341Z,28
2019-02-15T18:15:03.782Z,24
2019-02-15T18:20:06.228Z,18
2019-02-15T18:25:08.670Z,18
2019-02-15T18:30:11.073Z,17
2019-02-15T18:35:13.539Z,36
2019-02-15T18:40:15.997Z,6
2019-02-15T18:45:18.451Z,20
2019-02-15T18:50:20.971Z,19
2019-02-15T18:55:23.373Z,13
2019-02-15T19:00:25.880Z,19
2019-02-15T19:05:28.274Z,15
2019-02-15T19:10:30.770Z,12
2019-02-15T19:15:33.203Z,15
2019-02-15T19:20:35.671Z,11
2019-02-15T19:25:38.136Z,12
2019-02-15T19:30:40.611Z,12
2019-02-15T19:35:43.395Z,17
2019-02-15T19:40:45.573Z,17
2019-02-15T19:45:48.090Z,18
2019-02-15T19:50:50.542Z,17
2019-02-15T19:55:53.010Z,14
2019-02-15T20:00:55.540Z,16
2019-02-15T20:05:57.958Z,14
2019-02-15T20:11:00.417Z,13
2019-02-15T20:16:02.897Z,14
2019-02-15T20:21:05.387Z,18
2019-02-15T20:26:07.813Z,18
2019-02-15T20:31:10.263Z,22
2019-02-15T20:36:12.781Z,23
2019-02-15T20:41:15.210Z,18
2019-02-15T20:46:17.670Z,14
2019-02-15T20:51:20.134Z,13
2019-02-15T20:56:22.643Z,12
2019-02-15T21:01:25.061Z,14
2019-02-15T21:06:27.566Z,14
2019-02-15T21:11:30.047Z,14
2019-02-15T21:16:32.553Z,15
2019-02-15T21:21:34.921Z,14
2019-02-15T21:26:37.771Z,12
2019-02-15T21:31:39.854Z,11
2019-02-15T21:36:42.348Z,10
2019-02-15T21:41:44.795Z,11
2019-02-15T21:46:47.267Z,11
2019-02-15T21:51:49.720Z,12
2019-02-15T21:56:52.189Z,10
2019-02-15T22:01:54.645Z,13
2019-02-15T22:06:57.132Z,12
2019-02-15T22:11:59.582Z,12
2019-02-15T22:17:02.058Z,10
2019-02-15T22:22:04.487Z,10
2019-02-15T22:27:06.950Z,9
2019-02-15T22:32:09.427Z,11
2019-02-15T22:37:11.911Z,8
2019-02-15T22:42:14.339Z,9
2019-02-15T22:52:19.296Z,36
2019-02-15T22:57:21.786Z,19
2019-02-15T23:02:24.254Z,15
2019-02-15T23:07:26.687Z,9
2019-02-15T23:12:29.130Z,9
2019-02-15T23:17:31.634Z,8
2019-02-15T23:22:34.140Z,8
2019-02-15T23:27:36.556Z,9
2019-02-15T23:32:38.975Z,9
2019-02-15T23:37:41.443Z,7
2019-02-15T23:42:43.916Z,8
2019-02-15T23:47:46.400Z,7
2019-02-15T23:52:48.847Z,6
2019-02-15T23:57:51.297Z,7
